默认 日期 大小 文件数 浏览量 最新下载 xml
netflixى磁力链接相关资源由用户搜索指令自动获取,结果来源于网络,本站不存储任何资料,亦不承担任何责任,请于24小时内删除,搜索到10575个磁力,显示前4000条数据,用时4ms。
    {"ReadMe.url": 800, "Torrent downloaded from extremlymtorrents.me.txt": 36, "FlixGrab+ 1.1.7.21 Premium (NetFlix HD Downloader).exe": 17390370, "FlixGrab+ 1.1.7.21 Premium (NetFlix HD Downloader).nfo": 664}
创建时间: 2018-11-05 11:08:02 大小:16.59 MB 文件数量:4 热度:26 最近下载:2025-08-15 15:31:01
    {"Crack": {"Crack.zip": 838925}, "Proof.jpg": 53257, "Read Me!.txt": 291, "Setup_FlixGrab+.exe": 41814629, "[CracksN0w.C0m].url": 148}
创建时间: 2018-11-05 13:01:03 大小:40.73 MB 文件数量:5 热度:18 最近下载:2025-08-23 23:43:01
    {"02. Kids.flac": 15093903, "22. Papa.flac": 5558646, "16. Lamps.flac": 4583205, "07. Eleven.flac": 12974783, "08. A Kiss.flac": 5717776, "21. Agents.flac": 3671862, "10. Hawkins.flac": 21764329, "27. Run Away.flac": 7688058, "29. Dispatch.flac": 2911359, ...
创建时间: 2018-11-05 18:35:21 大小:266.24 MB 文件数量:37 热度:11 最近下载:2024-08-23 16:59:02
    {"Readme!!.inf": 704, "WWW.YIFY-TORRENTS.COM.jpg": 134216, "Torrent downloaded from AhaShare.com.txt": 24, "FlixGrab+ 1.2.3.85 Premium (Netflix HD Downloader) + Crack.exe": 17440532, "FlixGrab+ 1.2.3.85 Premium (Netflix HD Downloader) + Crack.nfo": 856}
创建时间: 2018-11-05 19:22:14 大小:16.76 MB 文件数量:5 热度:14 最近下载:2024-08-23 17:16:02
    {"Chef's.Table.S01E01.2160p.Netflix.WEBRip.DD5.1.x264-TrollUHD& ... , "Chef's.Table.S01E02.2160p.Netflix.WEBRip.DD5.1.x264-TrollUHD ... , "Chef's.Table.S01E03.2160p.Netflix.WEBRip.DD5.1.x264-TrollUHD ... , "Chef's.Table.S01E04.2160p.Netflix.WEBRip.DD5.1.x264-TrollUHD ...
创建时间: 2018-11-05 23:47:45 大小:57.18 GB 文件数量:6 热度:187 最近下载:2025-10-05 22:20:02
    {"Readme!!.inf": 984, "Torrent downloaded from AhaShare.com.txt": 36, "FlixGrab+ 1.5.5.62 Premium (Netflix HD Downloader) + Crack.exe": 12881604, "FlixGrab+ 1.5.5.62 Premium (Netflix HD Downloader) + Crack.nfo": 208}
创建时间: 2018-11-05 23:55:17 大小:12.29 MB 文件数量:4 热度:9 最近下载:2024-08-22 22:49:01
    ... Multi Audio] [Multi Subs] [1080p] [Netflix Rip] [ScavvyKiD].mkv": 727340618, "[AnimeRG ... Multi Audio] [Multi Subs] [1080p] [Netflix Rip] [ScavvyKiD].mkv": 810129024, "[AnimeRG ... Audio] [Multi Subs] [1080p] [Netflix Rip] [ScavvyKiD].mkv": 696658274, "[AnimeRG ...
创建时间: 2018-11-06 01:28:48 大小:2.7 GB 文件数量:4 热度:19 最近下载:2025-09-19 00:23:08
    {"VeggieTales.in.the.House.S03E06.Takesaurus.-.The.Painting.XviD-AFG.avi": 199206934, "VeggieTales.in.the.House.S03E03.Motato.Gets.a.Job.-.Pet.Day.XviD-AFG.avi": 199161538, "VeggieTales.in.the.House.S03E11.Jimmy.Boy.-.The.Larry.Express.XviD-AFG.avi": ...
创建时间: 2018-11-06 05:53:51 大小:2.4 GB 文件数量:13 热度:10 最近下载:2024-08-23 16:15:01
    {"alt-torrent.com.mp4": 4001994, "POR FAVOR!.....COMPARTAN!.txt": 117, "Beirut (2018) Netflix LAT - ZeiZ.jpg": 76497, "Beirut (2018) Netflix LAT - ZeiZ.mkv": 4017606692}
创建时间: 2018-11-06 09:40:06 大小:3.75 GB 文件数量:4 热度:9 最近下载:2024-08-23 06:27:02
    {"Crack": {"Crack.zip": 838925}, "Proof.jpg": 54081, "Read Me!.txt": 291, "Setup_FlixGrab+.exe": 44416477, "[CracksN0w.C0m].url": 148, "[FreeTutorials.Us].url": 151, "Torrent Downloaded from Glodls.to.txt": 237}
创建时间: 2018-11-06 15:08:39 大小:43.21 MB 文件数量:7 热度:17 最近下载:2025-07-16 19:21:03
    ... , "Better Call Saul S04E06 1080p Netflix WEBRip DD+ 5.1 x264 ... , "Better Call Saul S04E06 1080p Netflix WEBRip DD+ 5.1 x264 ...
创建时间: 2018-11-06 15:25:10 大小:1.57 GB 文件数量:7 热度:7 最近下载:2024-08-23 04:09:01
    {"Visit SnowFiles.com.url": 110, "Visit CracksMind.com.url": 113, "Netflix-5.14.0 build 25948.apk": 23171188, "Downloaded from CracksMind.Com.txt": 2178, "Visit TutsGalaxy.com for tutorials & free courses.url": 113}
创建时间: 2018-11-06 20:08:42 大小:22.1 MB 文件数量:5 热度:13 最近下载:2024-08-22 22:50:02
    {"Fauda.S01E01.WEBRip.Netflix.mkv": 1583007381, "Fauda.S01E02.WEBRip.Netflix.mkv": 1133261289, "Fauda ... .S01E03.WEBRip.Netflix.mkv": 1551620322, "Fauda.S01E04.WEBRip.Netflix ...
创建时间: 2018-11-06 21:55:27 大小:15.47 GB 文件数量:12 热度:13 最近下载:2025-08-08 20:13:03
    ... Prisoners.WEBRip.DD5.1.x264.Netflix.mkv": 709170640, "Riverdale. ... Nighthawks.WEBRip.DD5.1.x264.Netflix.mkv": 648703795, "Riverdale. ... Wrestler.WEBRip.DD5.1.x264.Netflix.mkv": 682836848, "Riverdale. ... World.WEBRip.DD5.1.x264.Netflix.mkv": 731030935, "Riverdale. ...
创建时间: 2018-11-07 00:08:34 大小:14.18 GB 文件数量:22 热度:8 最近下载:2024-08-22 23:50:01
    {"RARBG.txt": 31, "English.srt": 100316, "Handsome.A.Netflix.Mystery.Movie.2017.WEBRip.x264-FGT.mp4": 726839941, "Handsome.A.Netflix.Mystery.Movie.2017.WEBRip.x264-FGT.nfo": 4011}
创建时间: 2018-11-07 02:50:19 大小:693.27 MB 文件数量:4 热度:10 最近下载:2024-08-22 23:17:02
    {"Readme!!.inf": 984, "Torrent downloaded from AhaShare.com.txt": 36, "FlixGrab+ 1.5.5.62 Premium (Netflix HD Downloader) + Crack.exe": 12881604, "FlixGrab+ 1.5.5.62 Premium (Netflix HD Downloader) + Crack.nfo": 208}
创建时间: 2018-11-07 03:08:47 大小:12.29 MB 文件数量:4 热度:8 最近下载:2025-05-04 08:46:02
    {"VeggieTales.in.the.House.S01E05.Laura.at.Bat.-.Pie.Fight.XviD-AFG.avi": 199142382, "VeggieTales.in.the.House.S01E09.Lie-Monade.-.Lets.Build.a.Fort.XviD-AFG.avi": 193619746, "VeggieTales.in.the.House.S01E03.Bobs.Bad.Breath.-.Trading.Places.XviD-AFG.avi": ...
创建时间: 2018-11-07 09:05:39 大小:2.71 GB 文件数量:15 热度:7 最近下载:2025-05-20 21:15:02
    {"Dark 02 (En) Lies.mp4": 1164293291, "Dark 05 (En) Truths.mp4": 1182923412, "Dark 05 (En) Truths.srt": 1282, "Dark 01 (En) Secrets.mp4": 1340310600, "Dark 07 (En) Crossroads.mp4": 1341626757, "Dark 04 (En) Double Lives.mp4": 1235321250, "Dark 04 (En) ...
创建时间: 2018-11-07 09:29:30 大小:12.12 GB 文件数量:12 热度:26 最近下载:2025-05-15 21:25:02
    {"ReadMe.url": 800, "Torrent downloaded from extremlymtorrents.me.txt": 36, "FlixGrab+ 1.1.7.21 Premium (NetFlix HD Downloader).exe": 17390370, "FlixGrab+ 1.1.7.21 Premium (NetFlix HD Downloader).nfo": 664}
创建时间: 2018-11-07 09:38:12 大小:16.59 MB 文件数量:4 热度:18 最近下载:2025-08-15 15:31:01
    {"alt-torrent.com.mp4": 4001994, "www.alt-torrent.com.txt": 266, "POR FAVOR!.....COMPARTAN!.txt": 117, "Godzilla - Monster Planet (2017) Netflix LAT - ZeiZ.jpg": 75408, "Godzilla - Monster Planet (2017) Netflix LAT - ZeiZ.mkv": 2570395183}
创建时间: 2018-11-07 10:00:17 大小:2.4 GB 文件数量:5 热度:12 最近下载:2025-05-18 05:10:01